This is the latest recevied weather packets stored in our database for station/object EA4URC-10. If no packets are shown the sender has not sent any weather packets the latest 10 day(s).
| Time | Temp. | Humidity | Pressure | Rain* | Wind** | Luminosity | Snow |
|---|---|---|---|---|---|---|---|
| 1777152785 | 11.11° C | 100% | 1034.6 hPa | - | - | - | - |
| 1777150984 | 12.22° C | 83% | 1034.6 hPa | - | - | - | - |
| 1777149189 | 12.22° C | 73% | 1034.2 hPa | - | - | - | - |
| 1777147389 | 13.33° C | 65% | 1034.2 hPa | - | - | - | - |
| 1777145588 | 13.33° C | 64% | 1033.7 hPa | - | - | - | - |
| 1777143788 | 13.33° C | 66% | 1033.1 hPa | - | - | - | - |
| 1777141990 | 13.33° C | 68% | 1032.6 hPa | - | - | - | - |
| 1777140189 | 13.89° C | 61% | 1032.6 hPa | - | - | - | - |
| 1777138386 | 12.78° C | 78% | 1032.3 hPa | - | - | - | - |
| 1777136585 | 13.33° C | 80% | 1032.5 hPa | - | - | - | - |
| 1777134785 | 18.89° C | 42% | 1032 hPa | - | - | - | - |
| 1777132984 | 20° C | 41% | 1031.9 hPa | - | - | - | - |
| 1777131184 | 18.89° C | 45% | 1032 hPa | - | - | - | - |
| 1777129383 | 18.33° C | 49% | 1032 hPa | - | - | - | - |
| 1777127589 | 20.56° C | 42% | 1032.2 hPa | - | - | - | - |
| 1777125788 | 20.56° C | 42% | 1032.5 hPa | - | - | - | - |
| 1777123988 | 22.22° C | 42% | 1032.5 hPa | - | - | - | - |
| 1777122187 | 23.33° C | 39% | 1032.9 hPa | - | - | - | - |
| 1777120386 | 24.44° C | 31% | 1033.1 hPa | - | - | - | - |
| 1777118586 | 23.33° C | 37% | 1033.1 hPa | - | - | - | - |
| 1777116785 | 20.56° C | 43% | 1033.3 hPa | - | - | - | - |
| 1777114985 | 20° C | 45% | 1033.4 hPa | - | - | - | - |
| 1777113184 | 18.33° C | 61% | 1033.5 hPa | - | - | - | - |
| 1777111386 | 16.67° C | 73% | 1033.4 hPa | - | - | - | - |
| 1777109583 | 15.56° C | 72% | 1033.3 hPa | - | - | - | - |
* Rain since midnight (hover to see other rain measurements)
** Current wind speed in m/s (hover to see current wind gust speed)